sensor_id;sensor_type;location;lat;lon;timestamp;P1;durP1;ratioP1;P2;durP2;ratioP2
71671;SDS011;67659;45.554;11.812;2023-07-28T00:01:41;6.50;;;3.20;;
71671;SDS011;67659;45.554;11.812;2023-07-28T00:04:07;7.13;;;3.23;;
71671;SDS011;67659;45.554;11.812;2023-07-28T00:06:34;8.10;;;3.40;;
71671;SDS011;67659;45.554;11.812;2023-07-28T00:09:00;8.30;;;3.78;;
71671;SDS011;67659;45.554;11.812;2023-07-28T00:11:26;6.60;;;3.28;;
71671;SDS011;67659;45.554;11.812;2023-07-28T00:13:52;6.70;;;3.63;;
71671;SDS011;67659;45.554;11.812;2023-07-28T00:16:19;7.47;;;3.50;;
71671;SDS011;67659;45.554;11.812;2023-07-28T00:18:45;8.65;;;3.60;;
71671;SDS011;67659;45.554;11.812;2023-07-28T00:21:11;8.18;;;3.50;;
71671;SDS011;67659;45.554;11.812;2023-07-28T00:23:37;6.97;;;3.70;;
71671;SDS011;67659;45.554;11.812;2023-07-28T00:26:03;6.93;;;3.70;;
71671;SDS011;67659;45.554;11.812;2023-07-28T00:28:29;7.53;;;3.45;;
71671;SDS011;67659;45.554;11.812;2023-07-28T00:30:55;7.88;;;3.20;;
71671;SDS011;67659;45.554;11.812;2023-07-28T00:33:21;7.80;;;3.17;;
71671;SDS011;67659;45.554;11.812;2023-07-28T00:35:47;6.93;;;3.40;;
71671;SDS011;67659;45.554;11.812;2023-07-28T00:38:14;7.07;;;3.50;;
71671;SDS011;67659;45.554;11.812;2023-07-28T00:40:40;7.65;;;3.80;;
71671;SDS011;67659;45.554;11.812;2023-07-28T00:43:06;7.00;;;3.88;;
71671;SDS011;67659;45.554;11.812;2023-07-28T00:45:33;9.30;;;3.75;;
71671;SDS011;67659;45.554;11.812;2023-07-28T00:47:59;11.70;;;4.27;;
71671;SDS011;67659;45.554;11.812;2023-07-28T00:50:26;7.78;;;3.50;;
71671;SDS011;67659;45.554;11.812;2023-07-28T00:52:52;8.10;;;3.20;;
71671;SDS011;67659;45.554;11.812;2023-07-28T00:57:45;7.33;;;3.53;;
71671;SDS011;67659;45.554;11.812;2023-07-28T01:00:11;7.10;;;3.50;;
71671;SDS011;67659;45.554;11.812;2023-07-28T01:02:38;10.65;;;4.05;;
71671;SDS011;67659;45.554;11.812;2023-07-28T01:05:04;6.50;;;3.43;;
71671;SDS011;67659;45.554;11.812;2023-07-28T01:10:22;7.20;;;3.63;;
71671;SDS011;67659;45.554;11.812;2023-07-28T01:12:53;8.20;;;3.55;;
71671;SDS011;67659;45.554;11.812;2023-07-28T01:15:19;8.27;;;3.73;;
71671;SDS011;67659;45.554;11.812;2023-07-28T01:17:45;7.80;;;3.63;;
71671;SDS011;67659;45.554;11.812;2023-07-28T01:20:11;6.75;;;3.90;;
71671;SDS011;67659;45.554;11.812;2023-07-28T01:27:48;7.73;;;3.93;;
71671;SDS011;67659;45.554;11.812;2023-07-28T01:30:15;7.07;;;4.00;;
71671;SDS011;67659;45.554;11.812;2023-07-28T01:32:41;7.78;;;4.40;;
71671;SDS011;67659;45.554;11.812;2023-07-28T01:35:07;9.07;;;4.32;;
71671;SDS011;67659;45.554;11.812;2023-07-28T01:37:33;9.57;;;4.50;;
71671;SDS011;67659;45.554;11.812;2023-07-28T01:39:59;8.43;;;4.57;;
71671;SDS011;67659;45.554;11.812;2023-07-28T01:42:26;7.07;;;4.15;;
71671;SDS011;67659;45.554;11.812;2023-07-28T01:44:52;8.18;;;3.70;;
71671;SDS011;67659;45.554;11.812;2023-07-28T01:47:18;7.33;;;3.80;;
71671;SDS011;67659;45.554;11.812;2023-07-28T01:49:44;8.47;;;3.87;;
71671;SDS011;67659;45.554;11.812;2023-07-28T01:52:10;8.13;;;3.97;;
71671;SDS011;67659;45.554;11.812;2023-07-28T01:54:36;8.25;;;3.58;;
71671;SDS011;67659;45.554;11.812;2023-07-28T01:57:01;8.20;;;3.70;;
71671;SDS011;67659;45.554;11.812;2023-07-28T01:59:28;7.70;;;3.63;;
71671;SDS011;67659;45.554;11.812;2023-07-28T02:01:53;7.60;;;3.88;;
71671;SDS011;67659;45.554;11.812;2023-07-28T02:04:19;8.32;;;3.83;;
71671;SDS011;67659;45.554;11.812;2023-07-28T02:06:45;7.50;;;3.77;;
71671;SDS011;67659;45.554;11.812;2023-07-28T02:09:11;7.88;;;4.18;;
71671;SDS011;67659;45.554;11.812;2023-07-28T02:11:37;7.85;;;3.90;;
71671;SDS011;67659;45.554;11.812;2023-07-28T02:14:03;8.77;;;4.53;;
71671;SDS011;67659;45.554;11.812;2023-07-28T02:16:29;9.15;;;4.38;;
71671;SDS011;67659;45.554;11.812;2023-07-28T02:18:57;9.50;;;4.38;;
71671;SDS011;67659;45.554;11.812;2023-07-28T02:21:23;6.80;;;3.70;;
71671;SDS011;67659;45.554;11.812;2023-07-28T02:23:48;8.40;;;4.03;;
71671;SDS011;67659;45.554;11.812;2023-07-28T02:26:14;7.68;;;3.88;;
71671;SDS011;67659;45.554;11.812;2023-07-28T02:28:40;9.20;;;4.45;;
71671;SDS011;67659;45.554;11.812;2023-07-28T02:31:06;7.68;;;4.80;;
71671;SDS011;67659;45.554;11.812;2023-07-28T02:33:32;11.27;;;5.63;;
71671;SDS011;67659;45.554;11.812;2023-07-28T02:36:01;10.07;;;5.57;;
71671;SDS011;67659;45.554;11.812;2023-07-28T02:38:28;11.23;;;5.50;;
71671;SDS011;67659;45.554;11.812;2023-07-28T02:40:57;11.97;;;6.90;;
71671;SDS011;67659;45.554;11.812;2023-07-28T02:43:31;12.67;;;6.73;;
71671;SDS011;67659;45.554;11.812;2023-07-28T02:46:00;11.90;;;7.38;;
71671;SDS011;67659;45.554;11.812;2023-07-28T02:48:44;11.63;;;7.10;;
71671;SDS011;67659;45.554;11.812;2023-07-28T02:51:20;11.82;;;7.57;;
71671;SDS011;67659;45.554;11.812;2023-07-28T02:53:54;9.65;;;6.60;;
71671;SDS011;67659;45.554;11.812;2023-07-28T02:56:26;11.03;;;6.30;;
71671;SDS011;67659;45.554;11.812;2023-07-28T02:59:03;11.57;;;6.50;;
71671;SDS011;67659;45.554;11.812;2023-07-28T03:01:34;10.73;;;7.13;;
71671;SDS011;67659;45.554;11.812;2023-07-28T03:04:10;13.07;;;7.28;;
71671;SDS011;67659;45.554;11.812;2023-07-28T03:06:48;10.35;;;7.30;;
71671;SDS011;67659;45.554;11.812;2023-07-28T03:09:19;12.57;;;7.93;;
71671;SDS011;67659;45.554;11.812;2023-07-28T03:12:01;11.88;;;7.78;;
71671;SDS011;67659;45.554;11.812;2023-07-28T03:14:33;12.85;;;6.70;;
71671;SDS011;67659;45.554;11.812;2023-07-28T03:37:31;11.77;;;8.30;;
71671;SDS011;67659;45.554;11.812;2023-07-28T03:40:02;11.35;;;7.68;;
71671;SDS011;67659;45.554;11.812;2023-07-28T03:43:02;13.18;;;7.88;;
71671;SDS011;67659;45.554;11.812;2023-07-28T03:45:45;13.02;;;8.25;;
71671;SDS011;67659;45.554;11.812;2023-07-28T03:48:23;12.45;;;8.32;;
71671;SDS011;67659;45.554;11.812;2023-07-28T03:51:06;12.93;;;7.90;;
71671;SDS011;67659;45.554;11.812;2023-07-28T03:53:39;10.00;;;7.28;;
71671;SDS011;67659;45.554;11.812;2023-07-28T03:56:36;12.18;;;8.02;;
71671;SDS011;67659;45.554;11.812;2023-07-28T03:59:02;12.77;;;8.27;;
71671;SDS011;67659;45.554;11.812;2023-07-28T04:01:31;11.97;;;7.60;;
71671;SDS011;67659;45.554;11.812;2023-07-28T04:04:00;11.67;;;7.40;;
71671;SDS011;67659;45.554;11.812;2023-07-28T04:06:43;10.32;;;6.10;;
71671;SDS011;67659;45.554;11.812;2023-07-28T04:09:36;11.95;;;6.80;;
71671;SDS011;67659;45.554;11.812;2023-07-28T04:12:27;10.65;;;6.60;;
71671;SDS011;67659;45.554;11.812;2023-07-28T04:15:02;12.10;;;6.75;;
71671;SDS011;67659;45.554;11.812;2023-07-28T04:17:44;12.07;;;6.60;;
71671;SDS011;67659;45.554;11.812;2023-07-28T04:20:27;11.43;;;6.05;;
71671;SDS011;67659;45.554;11.812;2023-07-28T04:22:59;11.13;;;6.05;;
71671;SDS011;67659;45.554;11.812;2023-07-28T04:25:45;9.70;;;5.82;;
71671;SDS011;67659;45.554;11.812;2023-07-28T04:28:39;9.07;;;5.68;;
71671;SDS011;67659;45.554;11.812;2023-07-28T04:31:25;12.30;;;5.83;;
71671;SDS011;67659;45.554;11.812;2023-07-28T04:34:17;8.43;;;5.10;;
71671;SDS011;67659;45.554;11.812;2023-07-28T04:36:48;8.55;;;5.15;;
71671;SDS011;67659;45.554;11.812;2023-07-28T04:39:42;10.10;;;5.32;;
71671;SDS011;67659;45.554;11.812;2023-07-28T04:42:11;9.05;;;5.30;;
71671;SDS011;67659;45.554;11.812;2023-07-28T04:44:50;8.20;;;4.93;;
71671;SDS011;67659;45.554;11.812;2023-07-28T04:47:37;8.07;;;4.97;;
71671;SDS011;67659;45.554;11.812;2023-07-28T04:50:13;10.25;;;6.10;;
71671;SDS011;67659;45.554;11.812;2023-07-28T04:52:42;8.23;;;5.10;;
71671;SDS011;67659;45.554;11.812;2023-07-28T04:55:27;7.88;;;4.53;;
71671;SDS011;67659;45.554;11.812;2023-07-28T05:01:14;7.70;;;4.10;;
71671;SDS011;67659;45.554;11.812;2023-07-28T05:07:08;6.70;;;3.35;;
71671;SDS011;67659;45.554;11.812;2023-07-28T05:10:06;7.18;;;3.85;;
71671;SDS011;67659;45.554;11.812;2023-07-28T05:15:50;10.88;;;3.90;;
71671;SDS011;67659;45.554;11.812;2023-07-28T05:18:31;9.07;;;4.00;;
71671;SDS011;67659;45.554;11.812;2023-07-28T05:21:08;8.07;;;4.10;;
71671;SDS011;67659;45.554;11.812;2023-07-28T05:23:50;8.57;;;3.97;;
71671;SDS011;67659;45.554;11.812;2023-07-28T05:26:52;7.33;;;3.60;;
71671;SDS011;67659;45.554;11.812;2023-07-28T05:36:07;8.20;;;4.35;;
71671;SDS011;67659;45.554;11.812;2023-07-28T05:39:21;7.50;;;4.05;;
71671;SDS011;67659;45.554;11.812;2023-07-28T05:41:53;8.73;;;4.03;;
71671;SDS011;67659;45.554;11.812;2023-07-28T05:55:11;8.55;;;3.80;;
71671;SDS011;67659;45.554;11.812;2023-07-28T06:08:25;9.63;;;3.50;;
71671;SDS011;67659;45.554;11.812;2023-07-28T06:14:50;6.80;;;3.30;;
71671;SDS011;67659;45.554;11.812;2023-07-28T06:18:26;7.72;;;3.70;;
71671;SDS011;67659;45.554;11.812;2023-07-28T06:21:29;7.43;;;3.33;;
71671;SDS011;67659;45.554;11.812;2023-07-28T06:24:42;10.27;;;3.50;;
71671;SDS011;67659;45.554;11.812;2023-07-28T06:27:08;8.88;;;3.80;;
71671;SDS011;67659;45.554;11.812;2023-07-28T06:29:34;8.80;;;3.73;;
71671;SDS011;67659;45.554;11.812;2023-07-28T06:32:00;7.10;;;3.60;;
71671;SDS011;67659;45.554;11.812;2023-07-28T06:34:26;9.45;;;3.58;;
71671;SDS011;67659;45.554;11.812;2023-07-28T06:36:54;9.98;;;3.58;;
71671;SDS011;67659;45.554;11.812;2023-07-28T06:39:38;8.67;;;3.43;;
